sensor_id;sensor_type;location;lat;lon;timestamp;temperature;humidity
19085;DHT22;9675;51.538;6.728;2023-06-14T00:01:55;26.70;76.50
19085;DHT22;9675;51.538;6.728;2023-06-14T00:04:24;26.70;76.70
19085;DHT22;9675;51.538;6.728;2023-06-14T00:06:51;26.70;76.70
19085;DHT22;9675;51.538;6.728;2023-06-14T00:09:19;26.60;76.70
19085;DHT22;9675;51.538;6.728;2023-06-14T00:11:46;26.60;76.80
19085;DHT22;9675;51.538;6.728;2023-06-14T00:14:13;26.50;76.80
19085;DHT22;9675;51.538;6.728;2023-06-14T00:16:40;26.50;76.90
19085;DHT22;9675;51.538;6.728;2023-06-14T00:19:08;26.50;77.20
19085;DHT22;9675;51.538;6.728;2023-06-14T00:21:38;26.40;77.00
19085;DHT22;9675;51.538;6.728;2023-06-14T00:24:05;26.30;77.10
19085;DHT22;9675;51.538;6.728;2023-06-14T00:26:32;26.30;77.20
19085;DHT22;9675;51.538;6.728;2023-06-14T00:28:59;26.30;77.40
19085;DHT22;9675;51.538;6.728;2023-06-14T00:31:26;26.30;77.60
19085;DHT22;9675;51.538;6.728;2023-06-14T00:33:53;26.20;78.40
19085;DHT22;9675;51.538;6.728;2023-06-14T00:36:20;26.10;77.50
19085;DHT22;9675;51.538;6.728;2023-06-14T00:38:49;26.10;77.80
19085;DHT22;9675;51.538;6.728;2023-06-14T00:41:16;26.10;78.60
19085;DHT22;9675;51.538;6.728;2023-06-14T00:43:43;26.00;77.90
19085;DHT22;9675;51.538;6.728;2023-06-14T00:46:10;26.00;77.90
19085;DHT22;9675;51.538;6.728;2023-06-14T00:48:38;25.90;77.90
19085;DHT22;9675;51.538;6.728;2023-06-14T00:51:06;25.90;78.10
19085;DHT22;9675;51.538;6.728;2023-06-14T00:53:33;25.80;78.10
19085;DHT22;9675;51.538;6.728;2023-06-14T00:56:03;25.80;78.20
19085;DHT22;9675;51.538;6.728;2023-06-14T00:58:30;25.80;78.30
19085;DHT22;9675;51.538;6.728;2023-06-14T01:00:58;25.80;79.30
19085;DHT22;9675;51.538;6.728;2023-06-14T01:03:25;25.70;78.40
19085;DHT22;9675;51.538;6.728;2023-06-14T01:06:00;25.70;78.50
19085;DHT22;9675;51.538;6.728;2023-06-14T01:08:41;25.60;78.50
19085;DHT22;9675;51.538;6.728;2023-06-14T01:11:18;25.60;78.60
19085;DHT22;9675;51.538;6.728;2023-06-14T01:13:52;25.50;78.70
19085;DHT22;9675;51.538;6.728;2023-06-14T01:16:22;25.50;78.80
19085;DHT22;9675;51.538;6.728;2023-06-14T01:18:52;25.50;78.80
19085;DHT22;9675;51.538;6.728;2023-06-14T01:21:22;25.40;78.80
19085;DHT22;9675;51.538;6.728;2023-06-14T01:23:52;25.40;78.90
19085;DHT22;9675;51.538;6.728;2023-06-14T01:26:20;25.30;78.90
19085;DHT22;9675;51.538;6.728;2023-06-14T01:28:48;25.30;79.10
19085;DHT22;9675;51.538;6.728;2023-06-14T01:31:20;25.20;79.00
19085;DHT22;9675;51.538;6.728;2023-06-14T01:33:48;25.20;79.10
19085;DHT22;9675;51.538;6.728;2023-06-14T01:36:17;25.20;79.10
19085;DHT22;9675;51.538;6.728;2023-06-14T01:38:46;25.20;79.10
19085;DHT22;9675;51.538;6.728;2023-06-14T01:41:17;25.10;79.20
19085;DHT22;9675;51.538;6.728;2023-06-14T01:43:48;25.10;79.30
19085;DHT22;9675;51.538;6.728;2023-06-14T01:46:17;25.00;79.40
19085;DHT22;9675;51.538;6.728;2023-06-14T01:48:46;24.90;79.30
19085;DHT22;9675;51.538;6.728;2023-06-14T01:51:13;24.90;79.30
19085;DHT22;9675;51.538;6.728;2023-06-14T01:53:40;24.90;79.50
19085;DHT22;9675;51.538;6.728;2023-06-14T01:56:07;24.90;80.30
19085;DHT22;9675;51.538;6.728;2023-06-14T01:58:35;24.80;79.50
19085;DHT22;9675;51.538;6.728;2023-06-14T02:01:03;24.80;79.70
19085;DHT22;9675;51.538;6.728;2023-06-14T02:03:30;24.70;79.70
19085;DHT22;9675;51.538;6.728;2023-06-14T02:05:57;24.70;79.70
19085;DHT22;9675;51.538;6.728;2023-06-14T02:08:24;24.70;79.80
19085;DHT22;9675;51.538;6.728;2023-06-14T02:10:52;24.60;79.90
19085;DHT22;9675;51.538;6.728;2023-06-14T02:13:19;24.60;79.90
19085;DHT22;9675;51.538;6.728;2023-06-14T02:15:47;24.50;79.90
19085;DHT22;9675;51.538;6.728;2023-06-14T02:18:16;24.50;80.20
19085;DHT22;9675;51.538;6.728;2023-06-14T02:20:43;24.50;80.20
19085;DHT22;9675;51.538;6.728;2023-06-14T02:23:10;24.40;80.30
19085;DHT22;9675;51.538;6.728;2023-06-14T02:25:37;24.40;80.30
19085;DHT22;9675;51.538;6.728;2023-06-14T02:28:05;24.40;80.30
19085;DHT22;9675;51.538;6.728;2023-06-14T02:30:32;24.30;80.30
19085;DHT22;9675;51.538;6.728;2023-06-14T02:33:00;24.30;80.40
19085;DHT22;9675;51.538;6.728;2023-06-14T02:35:29;24.30;80.50
19085;DHT22;9675;51.538;6.728;2023-06-14T02:37:56;24.20;80.60
19085;DHT22;9675;51.538;6.728;2023-06-14T02:40:24;24.20;80.80
19085;DHT22;9675;51.538;6.728;2023-06-14T02:42:51;24.20;80.80
19085;DHT22;9675;51.538;6.728;2023-06-14T02:45:18;24.10;80.80
19085;DHT22;9675;51.538;6.728;2023-06-14T02:47:46;24.10;80.90
19085;DHT22;9675;51.538;6.728;2023-06-14T02:50:14;24.10;81.80
19085;DHT22;9675;51.538;6.728;2023-06-14T02:52:42;24.00;81.10
19085;DHT22;9675;51.538;6.728;2023-06-14T02:55:10;24.00;81.10
19085;DHT22;9675;51.538;6.728;2023-06-14T02:57:37;23.90;81.20
19085;DHT22;9675;51.538;6.728;2023-06-14T03:00:05;23.90;81.30
19085;DHT22;9675;51.538;6.728;2023-06-14T03:02:35;23.90;81.30
19085;DHT22;9675;51.538;6.728;2023-06-14T03:05:02;23.80;81.30
19085;DHT22;9675;51.538;6.728;2023-06-14T03:07:31;23.80;81.40
19085;DHT22;9675;51.538;6.728;2023-06-14T03:10:00;23.80;81.50
19085;DHT22;9675;51.538;6.728;2023-06-14T03:12:27;23.70;81.80
19085;DHT22;9675;51.538;6.728;2023-06-14T03:14:54;23.70;81.60
19085;DHT22;9675;51.538;6.728;2023-06-14T03:17:22;23.70;81.80
19085;DHT22;9675;51.538;6.728;2023-06-14T03:19:49;23.70;81.90
19085;DHT22;9675;51.538;6.728;2023-06-14T03:22:16;23.60;81.80
19085;DHT22;9675;51.538;6.728;2023-06-14T03:24:45;23.60;82.00
19085;DHT22;9675;51.538;6.728;2023-06-14T03:27:12;23.60;81.90
19085;DHT22;9675;51.538;6.728;2023-06-14T03:29:39;23.50;82.00
19085;DHT22;9675;51.538;6.728;2023-06-14T03:32:07;23.50;82.20
19085;DHT22;9675;51.538;6.728;2023-06-14T03:34:35;23.40;82.10
19085;DHT22;9675;51.538;6.728;2023-06-14T03:37:04;23.40;82.20
19085;DHT22;9675;51.538;6.728;2023-06-14T03:39:31;23.40;82.30
19085;DHT22;9675;51.538;6.728;2023-06-14T03:42:00;23.40;82.60
19085;DHT22;9675;51.538;6.728;2023-06-14T03:44:27;23.30;82.40
19085;DHT22;9675;51.538;6.728;2023-06-14T03:46:54;23.30;82.60
19085;DHT22;9675;51.538;6.728;2023-06-14T03:49:21;23.30;82.70
19085;DHT22;9675;51.538;6.728;2023-06-14T03:51:48;23.20;82.60
19085;DHT22;9675;51.538;6.728;2023-06-14T03:54:16;23.20;82.80
19085;DHT22;9675;51.538;6.728;2023-06-14T03:56:43;23.10;82.70
19085;DHT22;9675;51.538;6.728;2023-06-14T03:59:12;23.10;82.90
19085;DHT22;9675;51.538;6.728;2023-06-14T04:01:39;23.10;83.00
19085;DHT22;9675;51.538;6.728;2023-06-14T04:04:11;23.00;83.40
19085;DHT22;9675;51.538;6.728;2023-06-14T04:06:38;22.90;83.50
19085;DHT22;9675;51.538;6.728;2023-06-14T04:09:06;22.90;83.70
19085;DHT22;9675;51.538;6.728;2023-06-14T04:11:33;22.90;83.70
19085;DHT22;9675;51.538;6.728;2023-06-14T04:14:02;22.90;83.70
19085;DHT22;9675;51.538;6.728;2023-06-14T04:16:30;22.90;83.50
19085;DHT22;9675;51.538;6.728;2023-06-14T04:18:57;22.90;83.90
19085;DHT22;9675;51.538;6.728;2023-06-14T04:21:24;22.80;83.60
19085;DHT22;9675;51.538;6.728;2023-06-14T04:23:53;22.80;84.00
19085;DHT22;9675;51.538;6.728;2023-06-14T04:26:22;22.80;83.90
19085;DHT22;9675;51.538;6.728;2023-06-14T04:28:55;22.80;84.00
19085;DHT22;9675;51.538;6.728;2023-06-14T04:31:22;22.70;84.20
19085;DHT22;9675;51.538;6.728;2023-06-14T04:33:52;22.70;84.40
19085;DHT22;9675;51.538;6.728;2023-06-14T04:36:19;22.70;84.00
19085;DHT22;9675;51.538;6.728;2023-06-14T04:38:46;22.60;85.40
19085;DHT22;9675;51.538;6.728;2023-06-14T04:41:14;22.60;84.80
19085;DHT22;9675;51.538;6.728;2023-06-14T04:43:41;22.60;84.40
19085;DHT22;9675;51.538;6.728;2023-06-14T04:46:09;22.50;84.80
19085;DHT22;9675;51.538;6.728;2023-06-14T04:48:37;22.50;85.00
19085;DHT22;9675;51.538;6.728;2023-06-14T04:51:06;22.50;85.00
19085;DHT22;9675;51.538;6.728;2023-06-14T04:53:33;22.50;85.00
19085;DHT22;9675;51.538;6.728;2023-06-14T04:56:01;22.40;85.40
19085;DHT22;9675;51.538;6.728;2023-06-14T04:58:30;22.40;85.40
19085;DHT22;9675;51.538;6.728;2023-06-14T05:00:57;22.40;85.50
19085;DHT22;9675;51.538;6.728;2023-06-14T05:03:25;22.40;85.50
19085;DHT22;9675;51.538;6.728;2023-06-14T05:05:53;22.40;85.80
19085;DHT22;9675;51.538;6.728;2023-06-14T05:08:22;22.30;85.60
19085;DHT22;9675;51.538;6.728;2023-06-14T05:10:50;22.30;85.50
19085;DHT22;9675;51.538;6.728;2023-06-14T05:13:17;22.30;85.50
19085;DHT22;9675;51.538;6.728;2023-06-14T05:15:44;22.30;86.00
19085;DHT22;9675;51.538;6.728;2023-06-14T05:18:11;22.30;85.60
19085;DHT22;9675;51.538;6.728;2023-06-14T05:20:40;22.20;86.10
19085;DHT22;9675;51.538;6.728;2023-06-14T05:23:09;22.20;86.40
19085;DHT22;9675;51.538;6.728;2023-06-14T05:25:42;22.20;86.30
19085;DHT22;9675;51.538;6.728;2023-06-14T05:28:09;22.20;86.10
19085;DHT22;9675;51.538;6.728;2023-06-14T05:30:37;22.20;86.70
19085;DHT22;9675;51.538;6.728;2023-06-14T05:33:05;22.10;86.70
19085;DHT22;9675;51.538;6.728;2023-06-14T05:35:32;22.10;87.80
19085;DHT22;9675;51.538;6.728;2023-06-14T05:37:59;22.10;86.70
19085;DHT22;9675;51.538;6.728;2023-06-14T05:40:27;22.10;87.00
19085;DHT22;9675;51.538;6.728;2023-06-14T05:42:55;22.10;87.00
19085;DHT22;9675;51.538;6.728;2023-06-14T05:45:22;22.10;88.00
19085;DHT22;9675;51.538;6.728;2023-06-14T05:47:49;22.10;87.30
19085;DHT22;9675;51.538;6.728;2023-06-14T05:50:16;22.10;87.30
19085;DHT22;9675;51.538;6.728;2023-06-14T05:52:43;22.10;87.00
19085;DHT22;9675;51.538;6.728;2023-06-14T05:55:10;22.10;87.40
19085;DHT22;9675;51.538;6.728;2023-06-14T05:57:38;22.10;87.20
19085;DHT22;9675;51.538;6.728;2023-06-14T06:00:08;22.10;87.70
19085;DHT22;9675;51.538;6.728;2023-06-14T06:02:39;22.10;87.80
19085;DHT22;9675;51.538;6.728;2023-06-14T06:05:08;22.10;87.90
19085;DHT22;9675;51.538;6.728;2023-06-14T06:07:35;22.10;87.80
19085;DHT22;9675;51.538;6.728;2023-06-14T06:10:03;22.10;88.20
19085;DHT22;9675;51.538;6.728;2023-06-14T06:12:31;22.10;88.20
19085;DHT22;9675;51.538;6.728;2023-06-14T06:14:59;22.10;88.20
19085;DHT22;9675;51.538;6.728;2023-06-14T06:17:27;22.10;88.20
19085;DHT22;9675;51.538;6.728;2023-06-14T06:19:55;22.10;88.20
19085;DHT22;9675;51.538;6.728;2023-06-14T06:22:22;22.10;88.50
19085;DHT22;9675;51.538;6.728;2023-06-14T06:24:49;22.10;88.50
19085;DHT22;9675;51.538;6.728;2023-06-14T06:27:16;22.20;88.60
19085;DHT22;9675;51.538;6.728;2023-06-14T06:29:44;22.20;88.30
19085;DHT22;9675;51.538;6.728;2023-06-14T06:32:11;22.20;88.20
19085;DHT22;9675;51.538;6.728;2023-06-14T06:34:40;22.20;88.10
19085;DHT22;9675;51.538;6.728;2023-06-14T06:37:07;22.20;88.10
19085;DHT22;9675;51.538;6.728;2023-06-14T06:39:34;22.30;88.10
19085;DHT22;9675;51.538;6.728;2023-06-14T06:42:01;22.30;88.00
19085;DHT22;9675;51.538;6.728;2023-06-14T06:44:28;22.30;88.10
19085;DHT22;9675;51.538;6.728;2023-06-14T06:46:55;22.40;88.10
19085;DHT22;9675;51.538;6.728;2023-06-14T06:49:23;22.40;88.00
19085;DHT22;9675;51.538;6.728;2023-06-14T06:52:01;22.40;87.90
19085;DHT22;9675;51.538;6.728;2023-06-14T06:54:30;22.40;88.00
19085;DHT22;9675;51.538;6.728;2023-06-14T06:56:58;22.50;87.80
19085;DHT22;9675;51.538;6.728;2023-06-14T06:59:25;22.50;87.60
19085;DHT22;9675;51.538;6.728;2023-06-14T07:01:52;22.50;87.60
19085;DHT22;9675;51.538;6.728;2023-06-14T07:04:19;22.60;87.70
19085;DHT22;9675;51.538;6.728;2023-06-14T07:06:46;22.60;87.40
19085;DHT22;9675;51.538;6.728;2023-06-14T07:09:15;22.60;87.00
19085;DHT22;9675;51.538;6.728;2023-06-14T07:11:43;22.70;87.20
19085;DHT22;9675;51.538;6.728;2023-06-14T07:14:11;22.70;88.20
19085;DHT22;9675;51.538;6.728;2023-06-14T07:16:38;22.80;87.40
19085;DHT22;9675;51.538;6.728;2023-06-14T07:19:06;22.80;88.50
19085;DHT22;9675;51.538;6.728;2023-06-14T07:21:34;22.90;87.60
19085;DHT22;9675;51.538;6.728;2023-06-14T07:24:03;23.00;87.30
19085;DHT22;9675;51.538;6.728;2023-06-14T07:26:33;23.00;87.20
19085;DHT22;9675;51.538;6.728;2023-06-14T07:29:01;23.10;86.80
19085;DHT22;9675;51.538;6.728;2023-06-14T07:31:28;23.10;86.70
19085;DHT22;9675;51.538;6.728;2023-06-14T07:33:55;23.20;86.50
19085;DHT22;9675;51.538;6.728;2023-06-14T07:36:22;23.20;86.30
19085;DHT22;9675;51.538;6.728;2023-06-14T07:38:49;23.30;86.30
19085;DHT22;9675;51.538;6.728;2023-06-14T07:41:16;23.40;86.10
19085;DHT22;9675;51.538;6.728;2023-06-14T07:43:45;23.50;86.10
19085;DHT22;9675;51.538;6.728;2023-06-14T07:46:12;23.50;86.00
19085;DHT22;9675;51.538;6.728;2023-06-14T07:48:39;23.60;86.10
19085;DHT22;9675;51.538;6.728;2023-06-14T07:51:07;23.60;85.90
19085;DHT22;9675;51.538;6.728;2023-06-14T07:53:34;23.70;85.60
19085;DHT22;9675;51.538;6.728;2023-06-14T07:56:01;23.80;85.50
19085;DHT22;9675;51.538;6.728;2023-06-14T07:58:28;23.80;85.50
19085;DHT22;9675;51.538;6.728;2023-06-14T08:00:56;23.90;85.60
19085;DHT22;9675;51.538;6.728;2023-06-14T08:03:23;23.90;85.30
19085;DHT22;9675;51.538;6.728;2023-06-14T08:05:50;24.00;85.00
19085;DHT22;9675;51.538;6.728;2023-06-14T08:08:18;24.10;85.10
19085;DHT22;9675;51.538;6.728;2023-06-14T08:10:45;24.10;85.10
19085;DHT22;9675;51.538;6.728;2023-06-14T08:13:12;24.30;85.00
19085;DHT22;9675;51.538;6.728;2023-06-14T08:15:39;24.30;85.10
19085;DHT22;9675;51.538;6.728;2023-06-14T08:18:07;24.40;85.70
19085;DHT22;9675;51.538;6.728;2023-06-14T08:20:34;24.50;84.80
19085;DHT22;9675;51.538;6.728;2023-06-14T08:23:02;24.50;84.80
19085;DHT22;9675;51.538;6.728;2023-06-14T08:25:30;24.60;84.80
19085;DHT22;9675;51.538;6.728;2023-06-14T08:27:58;24.70;84.60
19085;DHT22;9675;51.538;6.728;2023-06-14T08:30:25;24.80;84.60
19085;DHT22;9675;51.538;6.728;2023-06-14T08:32:52;24.80;84.30
19085;DHT22;9675;51.538;6.728;2023-06-14T08:35:22;24.90;84.50
19085;DHT22;9675;51.538;6.728;2023-06-14T08:37:49;25.00;84.10
19085;DHT22;9675;51.538;6.728;2023-06-14T08:40:21;25.00;83.50
19085;DHT22;9675;51.538;6.728;2023-06-14T08:42:51;25.10;83.00
19085;DHT22;9675;51.538;6.728;2023-06-14T08:45:19;25.20;83.20
19085;DHT22;9675;51.538;6.728;2023-06-14T08:47:47;25.30;82.90
19085;DHT22;9675;51.538;6.728;2023-06-14T08:50:20;25.30;82.80
19085;DHT22;9675;51.538;6.728;2023-06-14T08:52:54;25.40;82.60
19085;DHT22;9675;51.538;6.728;2023-06-14T08:55:23;25.50;82.60
19085;DHT22;9675;51.538;6.728;2023-06-14T08:57:54;25.50;82.30
19085;DHT22;9675;51.538;6.728;2023-06-14T09:00:23;25.60;82.20
19085;DHT22;9675;51.538;6.728;2023-06-14T09:02:52;25.70;82.20
19085;DHT22;9675;51.538;6.728;2023-06-14T09:05:24;25.80;82.20
19085;DHT22;9675;51.538;6.728;2023-06-14T09:07:52;25.90;82.20
19085;DHT22;9675;51.538;6.728;2023-06-14T09:10:21;26.00;82.60
19085;DHT22;9675;51.538;6.728;2023-06-14T09:12:48;26.10;81.90
19085;DHT22;9675;51.538;6.728;2023-06-14T09:15:16;26.20;81.90
19085;DHT22;9675;51.538;6.728;2023-06-14T09:17:43;26.20;81.80
19085;DHT22;9675;51.538;6.728;2023-06-14T09:20:10;26.30;81.30
19085;DHT22;9675;51.538;6.728;2023-06-14T09:22:40;26.40;81.40
19085;DHT22;9675;51.538;6.728;2023-06-14T09:25:08;26.50;80.30
19085;DHT22;9675;51.538;6.728;2023-06-14T09:27:38;26.50;80.50
19085;DHT22;9675;51.538;6.728;2023-06-14T09:30:09;26.60;80.60
19085;DHT22;9675;51.538;6.728;2023-06-14T09:32:37;26.40;78.50
19085;DHT22;9675;51.538;6.728;2023-06-14T09:35:06;26.40;79.10
19085;DHT22;9675;51.538;6.728;2023-06-14T09:37:34;26.50;79.20
19085;DHT22;9675;51.538;6.728;2023-06-14T09:40:06;26.50;78.70
19085;DHT22;9675;51.538;6.728;2023-06-14T09:42:34;26.60;78.90
19085;DHT22;9675;51.538;6.728;2023-06-14T09:45:03;26.70;78.60
19085;DHT22;9675;51.538;6.728;2023-06-14T09:47:31;26.80;78.70
19085;DHT22;9675;51.538;6.728;2023-06-14T09:49:58;27.00;78.50
19085;DHT22;9675;51.538;6.728;2023-06-14T09:52:26;27.10;78.50
19085;DHT22;9675;51.538;6.728;2023-06-14T09:54:55;27.20;78.10
19085;DHT22;9675;51.538;6.728;2023-06-14T09:57:25;27.40;78.30
19085;DHT22;9675;51.538;6.728;2023-06-14T09:59:57;27.50;77.40
19085;DHT22;9675;51.538;6.728;2023-06-14T10:02:31;27.50;77.00
19085;DHT22;9675;51.538;6.728;2023-06-14T10:05:04;27.60;76.30
19085;DHT22;9675;51.538;6.728;2023-06-14T10:07:35;27.60;76.30
19085;DHT22;9675;51.538;6.728;2023-06-14T10:10:07;27.70;76.30
19085;DHT22;9675;51.538;6.728;2023-06-14T10:12:37;27.70;76.10
19085;DHT22;9675;51.538;6.728;2023-06-14T10:15:05;27.80;75.80
19085;DHT22;9675;51.538;6.728;2023-06-14T10:17:40;27.80;75.70
19085;DHT22;9675;51.538;6.728;2023-06-14T10:20:21;27.90;75.80
19085;DHT22;9675;51.538;6.728;2023-06-14T10:23:00;28.00;75.60
19085;DHT22;9675;51.538;6.728;2023-06-14T10:25:31;28.20;75.70
19085;DHT22;9675;51.538;6.728;2023-06-14T10:28:14;28.20;75.00
19085;DHT22;9675;51.538;6.728;2023-06-14T10:31:01;28.30;75.00
19085;DHT22;9675;51.538;6.728;2023-06-14T10:33:33;28.30;74.40
19085;DHT22;9675;51.538;6.728;2023-06-14T10:36:25;28.40;74.40
19085;DHT22;9675;51.538;6.728;2023-06-14T10:39:06;28.50;74.40
19085;DHT22;9675;51.538;6.728;2023-06-14T10:41:36;28.70;74.00
19085;DHT22;9675;51.538;6.728;2023-06-14T10:47:23;28.90;73.80
19085;DHT22;9675;51.538;6.728;2023-06-14T10:49:53;29.00;73.80
19085;DHT22;9675;51.538;6.728;2023-06-14T10:52:22;29.10;73.60
19085;DHT22;9675;51.538;6.728;2023-06-14T10:55:06;29.20;73.50
19085;DHT22;9675;51.538;6.728;2023-06-14T10:57:41;29.30;73.60
19085;DHT22;9675;51.538;6.728;2023-06-14T11:00:13;29.50;73.60
19085;DHT22;9675;51.538;6.728;2023-06-14T11:06:12;29.50;72.70
19085;DHT22;9675;51.538;6.728;2023-06-14T11:12:15;29.70;73.10
19085;DHT22;9675;51.538;6.728;2023-06-14T11:14:46;29.80;72.90
19085;DHT22;9675;51.538;6.728;2023-06-14T11:17:15;29.80;72.40
19085;DHT22;9675;51.538;6.728;2023-06-14T11:19:43;29.80;72.20
19085;DHT22;9675;51.538;6.728;2023-06-14T11:22:10;29.90;72.30
19085;DHT22;9675;51.538;6.728;2023-06-14T11:24:40;30.00;72.30
19085;DHT22;9675;51.538;6.728;2023-06-14T11:27:07;30.10;73.10
19085;DHT22;9675;51.538;6.728;2023-06-14T11:29:34;30.10;72.00
19085;DHT22;9675;51.538;6.728;2023-06-14T11:32:01;30.30;72.20
19085;DHT22;9675;51.538;6.728;2023-06-14T11:34:30;30.30;72.10
19085;DHT22;9675;51.538;6.728;2023-06-14T11:36:57;30.40;71.80
19085;DHT22;9675;51.538;6.728;2023-06-14T11:39:25;30.50;71.90
19085;DHT22;9675;51.538;6.728;2023-06-14T11:41:53;30.50;72.60
19085;DHT22;9675;51.538;6.728;2023-06-14T11:44:20;30.60;71.60
19085;DHT22;9675;51.538;6.728;2023-06-14T11:46:48;30.60;71.60
19085;DHT22;9675;51.538;6.728;2023-06-14T11:49:16;30.70;71.40
19085;DHT22;9675;51.538;6.728;2023-06-14T11:51:44;30.70;71.80
19085;DHT22;9675;51.538;6.728;2023-06-14T11:54:12;30.90;71.80
19085;DHT22;9675;51.538;6.728;2023-06-14T11:56:40;31.00;71.60
19085;DHT22;9675;51.538;6.728;2023-06-14T11:59:07;31.00;71.50
19085;DHT22;9675;51.538;6.728;2023-06-14T12:01:37;31.10;71.60
19085;DHT22;9675;51.538;6.728;2023-06-14T12:04:05;31.10;71.70
19085;DHT22;9675;51.538;6.728;2023-06-14T12:06:32;31.20;71.80
19085;DHT22;9675;51.538;6.728;2023-06-14T12:09:04;31.30;71.50
19085;DHT22;9675;51.538;6.728;2023-06-14T12:11:38;31.30;71.30
19085;DHT22;9675;51.538;6.728;2023-06-14T12:14:05;31.40;72.10
19085;DHT22;9675;51.538;6.728;2023-06-14T12:16:36;31.50;71.40
19085;DHT22;9675;51.538;6.728;2023-06-14T12:19:09;31.50;71.30
19085;DHT22;9675;51.538;6.728;2023-06-14T12:21:39;31.60;70.90
19085;DHT22;9675;51.538;6.728;2023-06-14T12:24:08;31.60;70.90
19085;DHT22;9675;51.538;6.728;2023-06-14T12:26:38;31.70;70.90
19085;DHT22;9675;51.538;6.728;2023-06-14T12:29:07;31.70;70.90
19085;DHT22;9675;51.538;6.728;2023-06-14T12:31:35;31.80;71.00
19085;DHT22;9675;51.538;6.728;2023-06-14T12:34:02;31.80;70.80
19085;DHT22;9675;51.538;6.728;2023-06-14T12:36:29;31.90;70.70
19085;DHT22;9675;51.538;6.728;2023-06-14T12:38:57;31.90;71.60
19085;DHT22;9675;51.538;6.728;2023-06-14T12:41:26;31.90;70.40
19085;DHT22;9675;51.538;6.728;2023-06-14T12:43:53;32.00;70.30
19085;DHT22;9675;51.538;6.728;2023-06-14T12:46:20;32.10;70.40
19085;DHT22;9675;51.538;6.728;2023-06-14T12:48:47;32.20;70.30
19085;DHT22;9675;51.538;6.728;2023-06-14T12:51:14;32.20;70.10
19085;DHT22;9675;51.538;6.728;2023-06-14T12:53:42;32.20;70.10
19085;DHT22;9675;51.538;6.728;2023-06-14T12:56:09;32.30;70.10
19085;DHT22;9675;51.538;6.728;2023-06-14T12:58:38;32.40;70.00
19085;DHT22;9675;51.538;6.728;2023-06-14T13:01:05;32.40;69.80
19085;DHT22;9675;51.538;6.728;2023-06-14T13:03:32;32.50;69.50
19085;DHT22;9675;51.538;6.728;2023-06-14T13:06:00;32.40;69.30
19085;DHT22;9675;51.538;6.728;2023-06-14T13:08:27;32.50;69.50
19085;DHT22;9675;51.538;6.728;2023-06-14T13:10:54;32.60;69.60
19085;DHT22;9675;51.538;6.728;2023-06-14T13:13:21;32.60;69.70
19085;DHT22;9675;51.538;6.728;2023-06-14T13:15:50;32.70;69.70
19085;DHT22;9675;51.538;6.728;2023-06-14T13:18:17;32.70;69.30
19085;DHT22;9675;51.538;6.728;2023-06-14T13:20:45;32.80;69.10
19085;DHT22;9675;51.538;6.728;2023-06-14T13:23:12;32.80;69.10
19085;DHT22;9675;51.538;6.728;2023-06-14T13:25:40;32.80;69.30
19085;DHT22;9675;51.538;6.728;2023-06-14T13:28:07;32.90;69.20
19085;DHT22;9675;51.538;6.728;2023-06-14T13:30:34;32.90;68.90
19085;DHT22;9675;51.538;6.728;2023-06-14T13:33:03;32.90;68.50
19085;DHT22;9675;51.538;6.728;2023-06-14T13:35:30;32.80;68.00
19085;DHT22;9675;51.538;6.728;2023-06-14T13:37:57;32.80;67.90
19085;DHT22;9675;51.538;6.728;2023-06-14T13:40:24;32.90;68.00
19085;DHT22;9675;51.538;6.728;2023-06-14T13:42:51;32.90;68.40
19085;DHT22;9675;51.538;6.728;2023-06-14T13:45:18;33.00;68.20
19085;DHT22;9675;51.538;6.728;2023-06-14T13:47:46;33.00;68.10
19085;DHT22;9675;51.538;6.728;2023-06-14T13:50:15;33.00;68.00
19085;DHT22;9675;51.538;6.728;2023-06-14T13:52:43;33.00;67.90
19085;DHT22;9675;51.538;6.728;2023-06-14T13:55:10;32.90;67.90
19085;DHT22;9675;51.538;6.728;2023-06-14T13:57:37;33.00;67.90
19085;DHT22;9675;51.538;6.728;2023-06-14T14:00:06;33.00;67.90
19085;DHT22;9675;51.538;6.728;2023-06-14T14:02:34;32.90;67.90
19085;DHT22;9675;51.538;6.728;2023-06-14T14:05:01;32.90;69.00
19085;DHT22;9675;51.538;6.728;2023-06-14T14:07:29;33.00;68.10
19085;DHT22;9675;51.538;6.728;2023-06-14T14:09:56;33.00;68.00
19085;DHT22;9675;51.538;6.728;2023-06-14T14:12:24;33.10;67.70
19085;DHT22;9675;51.538;6.728;2023-06-14T14:14:51;33.10;67.80
19085;DHT22;9675;51.538;6.728;2023-06-14T14:17:18;33.10;67.50
19085;DHT22;9675;51.538;6.728;2023-06-14T14:19:46;33.10;67.50
19085;DHT22;9675;51.538;6.728;2023-06-14T14:22:13;33.10;67.40
19085;DHT22;9675;51.538;6.728;2023-06-14T14:24:42;33.10;67.50
19085;DHT22;9675;51.538;6.728;2023-06-14T14:27:10;33.10;67.60
19085;DHT22;9675;51.538;6.728;2023-06-14T14:29:37;33.20;67.90
19085;DHT22;9675;51.538;6.728;2023-06-14T14:32:05;33.20;67.90
19085;DHT22;9675;51.538;6.728;2023-06-14T14:34:32;33.10;67.70
19085;DHT22;9675;51.538;6.728;2023-06-14T14:36:59;33.10;67.70
19085;DHT22;9675;51.538;6.728;2023-06-14T14:39:26;33.00;67.70
19085;DHT22;9675;51.538;6.728;2023-06-14T14:41:55;33.00;68.00
19085;DHT22;9675;51.538;6.728;2023-06-14T14:44:22;33.00;67.90
19085;DHT22;9675;51.538;6.728;2023-06-14T14:46:49;33.10;68.20
19085;DHT22;9675;51.538;6.728;2023-06-14T14:49:16;33.10;68.10
19085;DHT22;9675;51.538;6.728;2023-06-14T14:51:43;33.00;67.70
19085;DHT22;9675;51.538;6.728;2023-06-14T14:54:10;33.00;68.00
19085;DHT22;9675;51.538;6.728;2023-06-14T14:56:36;33.00;68.10
19085;DHT22;9675;51.538;6.728;2023-06-14T14:59:05;33.00;68.00
19085;DHT22;9675;51.538;6.728;2023-06-14T15:01:32;33.00;68.20
19085;DHT22;9675;51.538;6.728;2023-06-14T15:04:00;33.00;68.00
19085;DHT22;9675;51.538;6.728;2023-06-14T15:06:27;33.00;68.20
19085;DHT22;9675;51.538;6.728;2023-06-14T15:08:54;32.90;68.00
19085;DHT22;9675;51.538;6.728;2023-06-14T15:11:21;32.90;68.00
19085;DHT22;9675;51.538;6.728;2023-06-14T15:13:48;32.90;68.10
19085;DHT22;9675;51.538;6.728;2023-06-14T15:16:17;32.80;68.10
19085;DHT22;9675;51.538;6.728;2023-06-14T15:18:44;32.80;68.10
19085;DHT22;9675;51.538;6.728;2023-06-14T15:21:12;32.80;68.30
19085;DHT22;9675;51.538;6.728;2023-06-14T15:23:39;32.80;68.30
19085;DHT22;9675;51.538;6.728;2023-06-14T15:26:06;32.80;68.50
19085;DHT22;9675;51.538;6.728;2023-06-14T15:28:33;32.80;68.70
19085;DHT22;9675;51.538;6.728;2023-06-14T15:31:00;32.80;68.40
19085;DHT22;9675;51.538;6.728;2023-06-14T15:33:29;32.80;68.20
19085;DHT22;9675;51.538;6.728;2023-06-14T15:35:57;32.70;68.10
19085;DHT22;9675;51.538;6.728;2023-06-14T15:38:24;32.70;68.10
19085;DHT22;9675;51.538;6.728;2023-06-14T15:40:51;32.70;67.90
19085;DHT22;9675;51.538;6.728;2023-06-14T15:43:18;32.70;68.10
19085;DHT22;9675;51.538;6.728;2023-06-14T15:45:45;32.70;68.00
19085;DHT22;9675;51.538;6.728;2023-06-14T15:48:12;32.60;68.00
19085;DHT22;9675;51.538;6.728;2023-06-14T15:50:40;32.60;67.80
19085;DHT22;9675;51.538;6.728;2023-06-14T15:53:08;32.60;68.00
19085;DHT22;9675;51.538;6.728;2023-06-14T15:55:35;32.60;68.00
19085;DHT22;9675;51.538;6.728;2023-06-14T15:58:02;32.60;68.10
19085;DHT22;9675;51.538;6.728;2023-06-14T16:00:29;32.50;67.90
19085;DHT22;9675;51.538;6.728;2023-06-14T16:02:56;32.50;67.80